createdAt,value
2019-03-17T00:01:57.122Z,0.87
2019-03-17T00:04:15.862Z,0.70
2019-03-17T00:06:43.162Z,1.20
2019-03-17T00:09:10.469Z,1.30
2019-03-17T00:11:37.759Z,1.30
2019-03-17T00:14:05.122Z,1.70
2019-03-17T00:16:32.554Z,1.97
2019-03-17T00:19:00.011Z,1.30
2019-03-17T00:21:28.991Z,1.33
2019-03-17T00:23:56.742Z,1.17
2019-03-17T00:26:24.066Z,1.23
2019-03-17T00:28:51.542Z,1.83
2019-03-17T00:31:24.187Z,1.10
2019-03-17T00:33:49.390Z,1.10
2019-03-17T00:36:16.771Z,1.20
2019-03-17T00:38:44.999Z,1.20
2019-03-17T00:41:12.560Z,1.10
2019-03-17T00:43:40.781Z,1.10
2019-03-17T00:46:08.082Z,1.30
2019-03-17T00:48:35.377Z,1.43
2019-03-17T00:51:02.649Z,1.33
2019-03-17T00:53:30.255Z,1.80
2019-03-17T00:55:57.572Z,2.50
2019-03-17T00:58:25.067Z,2.47
2019-03-17T01:00:52.339Z,2.53
2019-03-17T01:03:19.570Z,2.67
2019-03-17T01:05:47.277Z,1.77
2019-03-17T01:08:14.687Z,2.20
2019-03-17T01:10:42.060Z,2.00
2019-03-17T01:13:09.499Z,2.37
2019-03-17T01:15:37.260Z,2.40
2019-03-17T01:18:04.755Z,2.30
2019-03-17T01:20:32.005Z,2.40
2019-03-17T01:22:59.309Z,2.00
2019-03-17T01:25:26.580Z,2.10
2019-03-17T01:27:53.956Z,1.50
2019-03-17T01:30:21.345Z,1.50
2019-03-17T01:32:49.107Z,1.37
2019-03-17T01:35:16.933Z,1.40
2019-03-17T01:37:44.223Z,1.30
2019-03-17T01:40:11.718Z,1.50
2019-03-17T01:42:39.109Z,1.30
2019-03-17T01:45:06.373Z,1.80
2019-03-17T01:47:34.608Z,1.53
2019-03-17T01:50:01.910Z,1.57
2019-03-17T01:52:29.418Z,1.50
2019-03-17T01:54:57.148Z,2.20
2019-03-17T01:57:24.390Z,2.13
2019-03-17T01:59:52.027Z,2.00
2019-03-17T02:02:19.593Z,1.30
2019-03-17T02:04:47.119Z,1.77
2019-03-17T02:07:14.874Z,1.50
2019-03-17T02:09:43.389Z,1.50
2019-03-17T02:12:10.669Z,1.60
2019-03-17T02:14:39.155Z,1.67
2019-03-17T02:17:06.456Z,1.63
2019-03-17T02:19:34.211Z,1.73
2019-03-17T02:22:03.391Z,1.50
2019-03-17T02:24:30.868Z,1.43
2019-03-17T02:26:58.083Z,1.30
2019-03-17T02:29:25.932Z,1.30
2019-03-17T02:31:53.220Z,1.07
2019-03-17T02:34:20.525Z,1.30
2019-03-17T02:36:47.990Z,1.07
2019-03-17T02:39:15.474Z,1.10
2019-03-17T02:41:42.754Z,1.07
2019-03-17T02:44:11.611Z,1.20
2019-03-17T02:46:38.846Z,0.90
2019-03-17T02:49:06.089Z,1.03
2019-03-17T02:51:33.599Z,0.80
2019-03-17T02:54:00.940Z,0.77
2019-03-17T02:56:28.198Z,1.27
2019-03-17T02:58:56.661Z,1.23
2019-03-17T03:01:24.232Z,1.60
2019-03-17T03:03:51.594Z,1.57
2019-03-17T03:06:18.855Z,2.23
2019-03-17T03:08:46.155Z,2.00
2019-03-17T03:11:13.570Z,1.70
2019-03-17T03:13:40.962Z,1.73
2019-03-17T03:16:08.744Z,1.70
2019-03-17T03:18:36.090Z,1.30
2019-03-17T03:21:03.604Z,1.37
2019-03-17T03:23:32.700Z,1.27
2019-03-17T03:26:00.410Z,1.27
2019-03-17T03:28:27.931Z,1.17
2019-03-17T03:30:55.442Z,1.40
2019-03-17T03:33:23.374Z,1.47
2019-03-17T03:35:51.205Z,1.17
2019-03-17T03:38:18.673Z,1.50
2019-03-17T03:40:46.166Z,1.53
2019-03-17T03:43:13.567Z,1.23
2019-03-17T03:45:40.786Z,1.20
2019-03-17T03:48:08.313Z,1.10
2019-03-17T03:50:35.990Z,1.37
2019-03-17T03:53:03.297Z,1.37
2019-03-17T03:55:30.538Z,1.20
2019-03-17T03:57:58.256Z,1.20
2019-03-17T04:00:25.772Z,1.50
2019-03-17T04:02:53.362Z,1.77
2019-03-17T04:05:20.554Z,1.10
2019-03-17T04:07:47.802Z,1.60
2019-03-17T04:10:15.203Z,1.33
2019-03-17T04:12:42.948Z,1.07
2019-03-17T04:15:10.955Z,1.07
2019-03-17T04:17:38.464Z,1.00
2019-03-17T04:20:06.367Z,0.80
2019-03-17T04:22:33.811Z,1.20
2019-03-17T04:25:01.353Z,0.80
2019-03-17T04:27:28.782Z,0.93
2019-03-17T04:29:56.153Z,1.03
2019-03-17T04:32:23.786Z,1.10
2019-03-17T04:34:51.066Z,1.20
2019-03-17T04:37:18.321Z,1.10
2019-03-17T04:39:45.661Z,0.80
2019-03-17T04:42:13.016Z,0.90
2019-03-17T04:44:40.387Z,1.20
2019-03-17T04:47:07.656Z,0.60
2019-03-17T04:49:35.254Z,0.83
2019-03-17T04:52:02.687Z,0.87
2019-03-17T04:54:30.040Z,0.80
2019-03-17T04:56:57.296Z,1.00
2019-03-17T04:59:24.591Z,0.67
2019-03-17T05:01:52.060Z,0.60
2019-03-17T05:04:19.839Z,1.10
2019-03-17T05:06:52.411Z,0.80
2019-03-17T05:09:17.414Z,1.03
2019-03-17T05:11:44.931Z,0.90
2019-03-17T05:14:12.176Z,0.50
2019-03-17T05:16:39.618Z,1.00
2019-03-17T05:19:06.996Z,0.60
2019-03-17T05:21:34.469Z,0.70
2019-03-17T05:24:02.065Z,0.93
2019-03-17T05:26:29.156Z,0.83
2019-03-17T05:28:56.468Z,0.80
2019-03-17T05:31:23.892Z,0.80
2019-03-17T05:33:51.178Z,0.75
2019-03-17T05:36:18.595Z,0.80
2019-03-17T05:38:46.063Z,0.60
2019-03-17T05:41:13.611Z,0.70
2019-03-17T05:43:41.031Z,0.77
2019-03-17T05:46:08.267Z,1.00
2019-03-17T05:48:35.771Z,0.70
2019-03-17T05:51:04.402Z,0.87
2019-03-17T05:53:31.766Z,0.60
2019-03-17T05:55:59.201Z,0.80
2019-03-17T05:58:26.511Z,0.93
2019-03-17T06:00:54.389Z,0.77
2019-03-17T06:03:21.686Z,0.70
2019-03-17T06:05:49.463Z,0.90
2019-03-17T06:08:16.905Z,1.00
2019-03-17T06:10:45.687Z,0.70
2019-03-17T06:13:12.956Z,0.90
2019-03-17T06:15:40.324Z,1.00
2019-03-17T06:18:07.863Z,1.00
2019-03-17T06:20:35.338Z,0.60
2019-03-17T06:23:02.686Z,1.07
2019-03-17T06:25:29.907Z,1.10
2019-03-17T06:27:57.065Z,1.00
2019-03-17T06:30:24.556Z,0.90
2019-03-17T06:32:51.851Z,1.10
2019-03-17T06:35:19.022Z,0.70
2019-03-17T06:37:46.443Z,1.20
2019-03-17T06:40:13.829Z,0.53
2019-03-17T06:42:41.253Z,0.70
2019-03-17T06:45:08.789Z,0.80
2019-03-17T06:47:37.418Z,0.60
2019-03-17T06:50:07.671Z,0.67
2019-03-17T06:52:35.046Z,0.70
2019-03-17T06:55:02.518Z,0.80
2019-03-17T06:57:29.825Z,0.77
2019-03-17T06:59:57.117Z,0.50
2019-03-17T07:02:24.543Z,0.70
2019-03-17T07:04:53.985Z,0.70
2019-03-17T07:07:21.294Z,0.80
2019-03-17T07:09:48.637Z,0.80
2019-03-17T07:12:15.993Z,1.00
2019-03-17T07:14:43.357Z,0.77
2019-03-17T07:17:10.943Z,0.90
2019-03-17T07:19:39.881Z,1.00
2019-03-17T07:22:07.553Z,0.70
2019-03-17T07:24:34.957Z,0.53
2019-03-17T07:27:02.197Z,0.80
2019-03-17T07:29:29.566Z,0.70
2019-03-17T07:31:57.268Z,1.00
2019-03-17T07:34:24.684Z,0.70
2019-03-17T07:36:51.852Z,0.80
2019-03-17T07:39:20.917Z,1.10
2019-03-17T07:41:48.190Z,0.90
2019-03-17T07:44:16.425Z,0.90
2019-03-17T07:46:43.978Z,0.80
2019-03-17T07:49:11.298Z,0.70
2019-03-17T07:51:38.665Z,0.80
2019-03-17T07:54:06.037Z,0.70
2019-03-17T07:56:33.746Z,1.07
2019-03-17T07:59:01.433Z,0.87
2019-03-17T08:01:28.709Z,1.00
2019-03-17T08:03:56.076Z,0.80
2019-03-17T08:06:23.492Z,0.70
2019-03-17T08:08:50.885Z,0.53
2019-03-17T08:11:18.285Z,0.70
2019-03-17T08:13:45.758Z,1.00
2019-03-17T08:16:14.185Z,0.83
2019-03-17T08:18:41.616Z,0.83
2019-03-17T08:21:09.049Z,1.10
2019-03-17T08:23:36.914Z,0.73
2019-03-17T08:26:04.278Z,0.97
2019-03-17T08:28:31.994Z,0.80
2019-03-17T08:30:59.483Z,0.77
2019-03-17T08:33:26.997Z,0.73
2019-03-17T08:35:54.111Z,0.90
2019-03-17T08:38:22.416Z,1.30
2019-03-17T08:40:49.799Z,0.80
2019-03-17T08:43:18.500Z,0.83
2019-03-17T08:45:45.893Z,0.80
2019-03-17T08:48:13.237Z,1.20
2019-03-17T08:50:40.548Z,0.90
2019-03-17T08:53:08.149Z,0.80
2019-03-17T08:55:35.586Z,0.80
2019-03-17T08:58:02.949Z,1.03
2019-03-17T09:00:30.239Z,0.90
2019-03-17T09:02:57.449Z,0.97
2019-03-17T09:05:24.972Z,0.90
2019-03-17T09:07:52.395Z,1.23
2019-03-17T09:10:19.692Z,1.10
2019-03-17T09:12:46.923Z,0.90
2019-03-17T09:15:14.513Z,1.20
2019-03-17T09:17:41.773Z,0.83
2019-03-17T09:20:09.888Z,0.80
2019-03-17T09:22:38.649Z,1.20
2019-03-17T09:25:07.384Z,1.03
2019-03-17T09:27:34.824Z,1.13
2019-03-17T09:30:02.242Z,1.00
2019-03-17T09:32:29.552Z,1.20
2019-03-17T09:34:56.737Z,1.50
2019-03-17T09:37:24.006Z,1.20
2019-03-17T09:39:51.384Z,1.70
2019-03-17T09:42:18.997Z,1.33
2019-03-17T09:44:46.347Z,1.40
2019-03-17T09:47:13.727Z,2.57
2019-03-17T09:49:41.139Z,1.20
2019-03-17T09:52:08.386Z,1.30
2019-03-17T09:54:35.790Z,1.50
2019-03-17T09:57:03.124Z,2.03
2019-03-17T09:59:31.657Z,1.30
2019-03-17T10:01:59.121Z,1.20
2019-03-17T10:04:27.907Z,1.20
2019-03-17T10:06:55.276Z,0.93
2019-03-17T10:09:22.464Z,2.03
2019-03-17T10:11:49.848Z,1.80
2019-03-17T10:14:17.403Z,1.50
2019-03-17T10:16:44.676Z,1.20
2019-03-17T10:19:11.948Z,1.63
2019-03-17T10:21:39.665Z,1.33
2019-03-17T10:24:09.063Z,2.30
2019-03-17T10:26:36.290Z,1.30
2019-03-17T10:29:03.680Z,1.33
2019-03-17T10:31:31.071Z,1.60
2019-03-17T10:33:58.499Z,1.37
2019-03-17T10:36:25.653Z,1.60
2019-03-17T10:38:52.943Z,1.87
2019-03-17T10:41:21.422Z,1.77
2019-03-17T10:43:48.682Z,1.40
2019-03-17T10:46:16.009Z,1.57
2019-03-17T10:48:43.413Z,2.17
2019-03-17T10:51:10.651Z,1.70
2019-03-17T10:53:38.212Z,1.70
2019-03-17T10:56:05.420Z,1.60
2019-03-17T10:58:32.736Z,1.80
2019-03-17T11:01:00.971Z,1.50
2019-03-17T11:03:28.386Z,1.67
2019-03-17T11:05:55.752Z,2.70
2019-03-17T11:08:23.679Z,2.00
2019-03-17T11:10:51.099Z,1.63
2019-03-17T11:13:18.357Z,1.50
2019-03-17T11:15:45.750Z,1.60
2019-03-17T11:18:13.153Z,1.90
2019-03-17T11:20:40.785Z,2.07
2019-03-17T11:23:08.247Z,2.00
2019-03-17T11:25:35.615Z,1.90
2019-03-17T11:28:02.996Z,2.00
2019-03-17T11:30:30.377Z,1.60
2019-03-17T11:32:57.633Z,2.97
2019-03-17T11:35:25.077Z,1.97
2019-03-17T11:37:52.713Z,2.60
2019-03-17T11:40:20.173Z,1.63
2019-03-17T11:42:49.779Z,2.07
2019-03-17T11:45:17.488Z,1.97
2019-03-17T11:47:45.185Z,1.93
2019-03-17T11:50:12.788Z,1.73
2019-03-17T11:52:40.499Z,1.87
2019-03-17T11:55:08.020Z,2.40
2019-03-17T11:57:35.396Z,2.07
2019-03-17T12:00:03.321Z,2.10
2019-03-17T12:02:32.344Z,2.47
2019-03-17T12:04:59.783Z,1.77
2019-03-17T12:07:27.137Z,2.63
2019-03-17T12:09:54.511Z,2.13
2019-03-17T12:12:21.995Z,2.57
2019-03-17T12:14:49.755Z,2.10
2019-03-17T12:17:17.382Z,2.13
2019-03-17T12:19:45.729Z,2.50
2019-03-17T12:22:12.996Z,2.10
2019-03-17T12:24:40.390Z,2.23
2019-03-17T12:27:07.750Z,2.27
2019-03-17T12:29:35.041Z,2.23
2019-03-17T12:32:02.275Z,2.00
2019-03-17T12:34:30.044Z,2.50
2019-03-17T12:36:57.433Z,2.50
2019-03-17T12:39:24.847Z,2.60
2019-03-17T12:41:52.573Z,4.13
2019-03-17T12:44:19.833Z,2.13
2019-03-17T12:46:46.967Z,2.47
2019-03-17T12:49:16.300Z,2.47
2019-03-17T12:51:43.595Z,1.90
2019-03-17T12:54:10.698Z,1.80
2019-03-17T12:56:38.989Z,1.87
2019-03-17T12:59:06.213Z,2.03
2019-03-17T13:01:33.654Z,2.97
2019-03-17T13:04:01.014Z,1.70
2019-03-17T13:06:28.278Z,2.37
2019-03-17T13:08:55.400Z,1.50
2019-03-17T13:11:22.660Z,2.37
2019-03-17T13:13:49.931Z,1.97
2019-03-17T13:16:17.694Z,1.50
2019-03-17T13:18:46.137Z,1.73
2019-03-17T13:21:13.371Z,2.23
2019-03-17T13:23:40.965Z,1.70
2019-03-17T13:26:10.452Z,1.60
2019-03-17T13:28:37.905Z,1.57
2019-03-17T13:31:05.151Z,2.20
2019-03-17T13:33:32.531Z,1.30
2019-03-17T13:35:59.798Z,1.77
2019-03-17T13:38:27.089Z,1.40
2019-03-17T13:40:54.394Z,2.17
2019-03-17T13:43:21.924Z,0.43
2019-03-17T13:45:49.375Z,0.67
2019-03-17T13:48:16.614Z,0.50
2019-03-17T13:50:44.014Z,0.40
2019-03-17T13:53:11.367Z,0.50
2019-03-17T13:55:38.894Z,0.20
2019-03-17T13:58:06.299Z,0.53
2019-03-17T14:00:33.646Z,0.20
2019-03-17T14:03:01.087Z,0.20
2019-03-17T14:05:28.518Z,0.13
2019-03-17T14:07:56.747Z,0.10
2019-03-17T14:10:24.842Z,0.30
2019-03-17T14:12:52.241Z,0.70
2019-03-17T14:15:19.652Z,4.93
2019-03-17T14:17:46.918Z,0.20
2019-03-17T14:20:15.494Z,0.30
2019-03-17T14:22:42.885Z,0.00
2019-03-17T14:25:15.898Z,0.20
2019-03-17T14:27:45.782Z,0.20
2019-03-17T14:30:14.842Z,0.27
2019-03-17T14:32:42.172Z,4.80
2019-03-17T14:35:09.430Z,0.70
2019-03-17T14:37:36.686Z,0.30
2019-03-17T14:40:05.061Z,0.10
2019-03-17T14:42:32.558Z,0.33
2019-03-17T14:44:59.961Z,0.17
2019-03-17T14:47:28.518Z,0.30
2019-03-17T14:49:55.847Z,0.20
2019-03-17T14:52:23.274Z,2.60
2019-03-17T14:54:50.916Z,4.60
2019-03-17T14:57:20.099Z,2.63
2019-03-17T14:59:47.935Z,3.40
2019-03-17T15:02:16.638Z,1.77
2019-03-17T15:04:44.123Z,0.90
2019-03-17T15:07:11.420Z,0.50
2019-03-17T15:09:38.678Z,3.57
2019-03-17T15:12:06.152Z,2.23
2019-03-17T15:14:33.324Z,5.70
2019-03-17T15:17:00.853Z,5.20
2019-03-17T15:19:28.712Z,2.40
2019-03-17T15:21:55.973Z,1.90
2019-03-17T15:24:23.384Z,2.27
2019-03-17T15:26:51.092Z,0.70
2019-03-17T15:29:18.372Z,0.60
2019-03-17T15:31:45.666Z,1.10
2019-03-17T15:34:12.821Z,0.70
2019-03-17T15:36:41.893Z,0.60
2019-03-17T15:39:09.165Z,1.80
2019-03-17T15:41:37.838Z,0.73
2019-03-17T15:44:05.065Z,0.30
2019-03-17T15:46:32.644Z,0.20
2019-03-17T15:49:00.128Z,0.60
2019-03-17T15:51:28.693Z,0.30
2019-03-17T15:53:55.827Z,1.23
2019-03-17T15:56:23.471Z,13.17
2019-03-17T15:58:50.752Z,1.00
2019-03-17T16:01:18.193Z,0.90
2019-03-17T16:03:45.530Z,0.90
2019-03-17T16:06:13.998Z,0.70
2019-03-17T16:08:41.574Z,1.60
2019-03-17T16:11:09.230Z,1.73
2019-03-17T16:13:36.544Z,0.93
2019-03-17T16:16:03.958Z,1.27
2019-03-17T16:18:31.542Z,0.80
2019-03-17T16:20:58.759Z,0.60
2019-03-17T16:23:26.333Z,0.73
2019-03-17T16:25:53.835Z,0.40
2019-03-17T16:28:22.484Z,0.60
2019-03-17T16:30:50.004Z,0.80
2019-03-17T16:33:17.644Z,0.90
2019-03-17T16:35:46.397Z,0.60
2019-03-17T16:38:13.882Z,3.50
2019-03-17T16:40:42.428Z,1.20
2019-03-17T16:43:09.729Z,1.33
2019-03-17T16:45:37.124Z,0.70
2019-03-17T16:48:04.876Z,0.97
2019-03-17T16:50:32.080Z,2.23
2019-03-17T16:52:59.475Z,1.33
2019-03-17T16:55:26.829Z,2.33
2019-03-17T16:57:54.187Z,0.90
2019-03-17T17:00:21.471Z,2.17
2019-03-17T17:02:48.865Z,1.50
2019-03-17T17:05:16.489Z,1.37
2019-03-17T17:07:43.879Z,0.90
2019-03-17T17:10:12.747Z,2.30
2019-03-17T17:12:41.795Z,5.10
2019-03-17T17:15:14.113Z,7.23
2019-03-17T17:17:43.508Z,3.80
2019-03-17T17:20:13.271Z,3.17
2019-03-17T17:22:40.554Z,2.30
2019-03-17T17:25:07.979Z,3.53
2019-03-17T17:27:36.591Z,1.03
2019-03-17T17:30:04.692Z,1.50
2019-03-17T17:32:32.099Z,2.70
2019-03-17T17:34:59.992Z,1.90
2019-03-17T17:37:27.411Z,2.07
2019-03-17T17:39:57.573Z,1.90
2019-03-17T17:42:25.211Z,1.30
2019-03-17T17:44:52.863Z,0.60
2019-03-17T17:47:20.176Z,0.80
2019-03-17T17:49:48.702Z,1.00
2019-03-17T17:52:16.333Z,1.40
2019-03-17T17:54:44.436Z,0.60
2019-03-17T17:57:11.785Z,0.90
2019-03-17T17:59:39.060Z,1.37
2019-03-17T18:02:09.946Z,1.10
2019-03-17T18:04:37.386Z,0.67
2019-03-17T18:07:04.973Z,0.60
2019-03-17T18:09:32.227Z,1.37
2019-03-17T18:11:59.661Z,1.10
2019-03-17T18:14:26.998Z,0.83
2019-03-17T18:16:54.300Z,1.50
2019-03-17T18:19:21.822Z,2.03
2019-03-17T18:21:49.320Z,1.40
2019-03-17T18:24:16.742Z,1.50
2019-03-17T18:26:44.086Z,1.20
2019-03-17T18:29:11.363Z,1.50
2019-03-17T18:31:38.756Z,0.67
2019-03-17T18:34:06.130Z,1.77
2019-03-17T18:36:33.504Z,0.90
2019-03-17T18:39:00.702Z,1.37
2019-03-17T18:41:27.875Z,1.20
2019-03-17T18:43:55.303Z,1.50
2019-03-17T18:46:22.682Z,1.63
2019-03-17T18:48:50.100Z,1.70
2019-03-17T18:51:18.024Z,4.33
2019-03-17T18:53:45.251Z,1.50
2019-03-17T18:56:12.534Z,3.27
2019-03-17T18:58:39.803Z,1.90
2019-03-17T19:01:07.560Z,3.20
2019-03-17T19:03:34.818Z,3.10
2019-03-17T19:06:02.033Z,1.73
2019-03-17T19:08:29.579Z,3.03
2019-03-17T19:10:57.198Z,4.17
2019-03-17T19:13:24.546Z,8.80
2019-03-17T19:15:52.126Z,6.93
2019-03-17T19:18:19.269Z,7.67
2019-03-17T19:20:46.559Z,7.63
2019-03-17T19:23:13.832Z,6.13
2019-03-17T19:25:41.115Z,4.80
2019-03-17T19:28:08.505Z,4.60
2019-03-17T19:30:35.978Z,4.80
2019-03-17T19:33:03.432Z,3.20
2019-03-17T19:35:30.707Z,4.00
2019-03-17T19:37:57.958Z,7.87
2019-03-17T19:40:25.374Z,3.80
2019-03-17T19:42:59.181Z,3.37
2019-03-17T19:45:22.149Z,2.40
2019-03-17T19:47:49.526Z,2.80
2019-03-17T19:50:16.887Z,2.93
2019-03-17T19:52:44.313Z,2.50
2019-03-17T19:55:11.861Z,2.70
2019-03-17T19:57:39.633Z,2.10
2019-03-17T20:00:08.711Z,1.80
2019-03-17T20:02:35.977Z,1.20
2019-03-17T20:05:03.942Z,1.40
2019-03-17T20:07:31.344Z,2.00
2019-03-17T20:09:58.633Z,1.63
2019-03-17T20:12:25.907Z,1.07
2019-03-17T20:14:53.279Z,2.10
2019-03-17T20:17:20.775Z,1.90
2019-03-17T20:19:48.153Z,1.13
2019-03-17T20:22:15.432Z,1.00
2019-03-17T20:24:42.909Z,0.70
2019-03-17T20:27:10.165Z,0.70
2019-03-17T20:29:37.533Z,0.73
2019-03-17T20:32:04.925Z,1.10
2019-03-17T20:34:35.575Z,1.13
2019-03-17T20:37:02.446Z,0.70
2019-03-17T20:39:29.895Z,1.00
2019-03-17T20:41:57.284Z,0.80
2019-03-17T20:44:24.699Z,0.70
2019-03-17T20:46:52.023Z,0.77
2019-03-17T20:49:19.652Z,0.90
2019-03-17T20:51:47.087Z,9.23
2019-03-17T20:54:15.456Z,15.83
2019-03-17T20:56:42.927Z,11.63
2019-03-17T20:59:10.307Z,1.60
2019-03-17T21:01:37.713Z,2.67
2019-03-17T21:04:04.996Z,3.53
2019-03-17T21:06:32.401Z,1.00
2019-03-17T21:08:59.878Z,1.80
2019-03-17T21:11:27.121Z,1.00
2019-03-17T21:13:54.421Z,1.20
2019-03-17T21:16:21.957Z,1.10
2019-03-17T21:18:49.241Z,1.20
2019-03-17T21:21:16.754Z,1.80
2019-03-17T21:23:46.443Z,0.97
2019-03-17T21:26:13.849Z,0.63
2019-03-17T21:28:41.163Z,0.60
2019-03-17T21:31:08.564Z,0.50
2019-03-17T21:33:35.941Z,0.30
2019-03-17T21:36:03.601Z,0.33
2019-03-17T21:38:30.705Z,0.60
2019-03-17T21:41:06.949Z,0.87
2019-03-17T21:43:28.292Z,0.73
2019-03-17T21:45:55.580Z,0.50
2019-03-17T21:48:24.293Z,0.60
2019-03-17T21:50:52.176Z,1.00
2019-03-17T21:53:19.498Z,0.60
2019-03-17T21:55:46.990Z,0.87
2019-03-17T21:58:14.387Z,0.90
2019-03-17T22:00:41.612Z,0.50
2019-03-17T22:03:16.641Z,0.67
2019-03-17T22:05:44.317Z,0.80
2019-03-17T22:08:11.729Z,3.90
2019-03-17T22:10:39.011Z,0.97
2019-03-17T22:13:06.389Z,0.67
2019-03-17T22:15:33.610Z,0.60
2019-03-17T22:18:01.081Z,0.63
2019-03-17T22:20:28.412Z,0.70
2019-03-17T22:22:56.083Z,0.70
2019-03-17T22:25:23.400Z,0.80
2019-03-17T22:27:50.638Z,0.80
2019-03-17T22:30:19.497Z,0.90
2019-03-17T22:32:46.761Z,0.63
2019-03-17T22:35:14.141Z,0.53
2019-03-17T22:37:41.552Z,0.50
2019-03-17T22:40:10.297Z,0.57
2019-03-17T22:42:37.729Z,0.80
2019-03-17T22:45:05.466Z,0.67
2019-03-17T22:47:33.131Z,0.60
2019-03-17T22:50:00.540Z,0.67
2019-03-17T22:52:27.841Z,0.60
2019-03-17T22:54:55.089Z,0.77
2019-03-17T22:57:22.473Z,0.57
2019-03-17T22:59:50.346Z,0.60
2019-03-17T23:02:17.766Z,0.63
2019-03-17T23:04:45.204Z,0.70
2019-03-17T23:07:12.746Z,0.50
2019-03-17T23:09:40.063Z,0.70
2019-03-17T23:12:07.470Z,0.80
2019-03-17T23:14:36.963Z,0.60
2019-03-17T23:17:04.147Z,0.50
2019-03-17T23:19:32.607Z,0.63
2019-03-17T23:21:59.841Z,0.60
2019-03-17T23:24:27.466Z,0.47
2019-03-17T23:26:54.855Z,0.50
2019-03-17T23:29:22.094Z,0.40
2019-03-17T23:31:50.902Z,0.30
2019-03-17T23:34:18.290Z,0.40
2019-03-17T23:36:45.823Z,0.77
2019-03-17T23:39:13.059Z,0.60
2019-03-17T23:41:40.342Z,0.40
2019-03-17T23:44:07.695Z,0.40
2019-03-17T23:46:35.294Z,0.60
2019-03-17T23:49:02.555Z,0.80
2019-03-17T23:51:30.008Z,0.43
2019-03-17T23:53:57.633Z,0.70
2019-03-17T23:56:24.883Z,0.73
2019-03-17T23:58:52.646Z,0.40
